Time;durP1;ratioP1;P1;durP2;ratioP2;P2;SDS_P1;SDS_P2;PMS_P1;PMS_P2;Temp;Humidity;BMP_temperature;BMP_pressure;BME280_temperature;BME280_humidity;BME280_pressure;Samples;Min_cycle;Max_cycle;Signal;HPM_P1;HPM_P2
2022/09/25 00:06:52;;;;;;;1999.90;999.90;;;13.40;99.90;;;;;;6647442;88;20221;-77
2022/09/25 00:16:52;;;;;;;1999.90;999.90;;;13.50;99.90;;;;;;6647182;88;20200;-77
2022/09/25 00:26:53;;;;;;;1999.90;999.90;;;13.50;99.90;;;;;;6646882;88;20707;-77
2022/09/25 00:36:53;;;;;;;1999.90;999.90;;;13.40;99.90;;;;;;6646547;88;20276;-77
2022/09/25 00:46:54;;;;;;;1999.90;999.90;;;13.40;99.90;;;;;;6647018;88;20317;-77
2022/09/25 00:56:57;;;;;;;1999.90;999.90;;;13.40;99.90;;;;;;6643436;88;20618;-77
2022/09/25 01:06:58;;;;;;;1999.90;999.90;;;13.30;99.90;;;;;;6646849;89;20236;-76
2022/09/25 01:17:15;;;;;;;1999.90;999.90;;;13.40;99.90;;;;;;6639568;88;20318;-76
2022/09/25 01:27:29;;;;;;;1999.90;999.90;;;13.30;99.90;;;;;;6650796;88;20192;-77
2022/09/25 01:37:42;;;;;;;1999.90;999.90;;;13.30;99.90;;;;;;6642886;88;20700;-78
2022/09/25 01:47:47;;;;;;;1999.90;999.90;;;13.30;99.90;;;;;;6648060;88;20222;-77
2022/09/25 01:58:26;;;;;;;1999.90;999.90;;;13.30;99.90;;;;;;6650209;88;20210;-77
2022/09/25 02:08:33;;;;;;;1999.90;999.90;;;13.20;99.90;;;;;;6647892;88;20749;-77
2022/09/25 02:28:55;;;;;;;1999.90;999.90;;;13.10;99.90;;;;;;6641785;88;20217;-76
2022/09/25 02:38:55;;;;;;;1999.90;999.90;;;13.00;99.90;;;;;;6644866;88;20334;-76
2022/09/25 02:49:13;;;;;;;1999.90;999.90;;;13.00;99.90;;;;;;6649053;88;20211;-76
2022/09/25 02:59:23;;;;;;;1999.90;999.90;;;13.00;99.90;;;;;;6636257;89;20596;-76
2022/09/25 03:09:24;;;;;;;1999.90;999.90;;;12.90;99.90;;;;;;6665178;88;20202;-77
2022/09/25 03:19:29;;;;;;;1999.90;999.90;;;12.90;99.90;;;;;;6672459;88;20176;-76
2022/09/25 03:29:30;;;;;;;1999.90;999.90;;;12.90;99.90;;;;;;6647235;88;20702;-76
2022/09/25 03:39:30;;;;;;;1999.90;999.90;;;12.90;99.90;;;;;;6664225;88;20204;-77
2022/09/25 03:49:31;;;;;;;1999.90;999.90;;;12.80;99.90;;;;;;6640356;89;20196;-77
2022/09/25 03:59:31;;;;;;;1999.90;999.90;;;12.80;99.90;;;;;;6659317;88;20264;-76
2022/09/25 04:09:32;;;;;;;1999.90;999.90;;;12.80;99.90;;;;;;6640376;88;20192;-77
2022/09/25 04:19:32;;;;;;;1999.90;999.90;;;12.80;99.90;;;;;;6651008;89;20196;-76
2022/09/25 04:39:36;;;;;;;1999.90;999.90;;;12.80;99.90;;;;;;6638450;88;20655;-78
2022/09/25 04:49:37;;;;;;;1999.90;999.90;;;12.80;99.90;;;;;;6631063;88;20198;-80
2022/09/25 04:59:38;;;;;;;1999.90;999.90;;;12.60;99.90;;;;;;6633817;88;20869;-77
2022/09/25 05:09:39;;;;;;;1999.90;999.90;;;12.60;99.90;;;;;;6642679;88;20178;-78
2022/09/25 05:19:39;;;;;;;1999.90;999.90;;;12.60;99.90;;;;;;6650677;88;20201;-78
2022/09/25 05:29:40;;;;;;;1999.90;999.90;;;12.60;99.90;;;;;;6651395;88;20181;-78
2022/09/25 05:39:41;;;;;;;1999.90;999.90;;;12.50;99.90;;;;;;6636322;88;20178;-78
2022/09/25 05:49:41;;;;;;;1999.90;999.90;;;12.50;99.90;;;;;;6632693;88;20223;-78
2022/09/25 05:59:42;;;;;;;1999.90;999.90;;;12.50;99.90;;;;;;6633031;88;20214;-78
2022/09/25 06:09:42;;;;;;;1999.90;999.90;;;12.50;99.90;;;;;;6634124;88;20231;-79
2022/09/25 06:19:43;;;;;;;1999.90;999.90;;;12.50;99.90;;;;;;6630154;88;20677;-78
2022/09/25 06:29:43;;;;;;;1999.90;999.90;;;12.60;99.90;;;;;;6650759;88;20209;-78
2022/09/25 06:39:44;;;;;;;1999.90;999.90;;;12.60;99.90;;;;;;6632345;89;20215;-78
2022/09/25 06:49:45;;;;;;;1999.90;999.90;;;12.70;99.90;;;;;;6634285;88;20628;-78
2022/09/25 06:59:45;;;;;;;1999.90;999.90;;;12.60;99.90;;;;;;6636273;88;20210;-78
2022/09/25 07:09:47;;;;;;;1999.90;999.90;;;12.70;99.90;;;;;;6637756;89;20251;-78
2022/09/25 07:19:47;;;;;;;1999.90;999.90;;;12.70;99.90;;;;;;6637129;88;20240;-79
2022/09/25 07:29:48;;;;;;;1999.90;999.90;;;12.70;99.90;;;;;;6637345;88;20247;-79
2022/09/25 07:39:48;;;;;;;1999.90;999.90;;;12.70;99.90;;;;;;6647613;88;20279;-78
2022/09/25 07:49:49;;;;;;;1999.90;999.90;;;12.90;99.90;;;;;;6639707;89;20206;-79
2022/09/25 07:59:49;;;;;;;1999.90;999.90;;;13.00;99.90;;;;;;6650273;88;20276;-79
2022/09/25 08:09:50;;;;;;;1999.90;999.90;;;13.10;99.90;;;;;;6635407;89;20209;-77
2022/09/25 08:19:50;;;;;;;1999.90;999.90;;;13.20;99.90;;;;;;6653397;88;20307;-77
2022/09/25 08:29:51;;;;;;;1999.90;999.90;;;13.30;99.90;;;;;;6635958;88;20186;-78
2022/09/25 08:39:52;;;;;;;1999.90;999.90;;;13.30;99.90;;;;;;6637910;88;20201;-78
2022/09/25 08:50:10;;;;;;;1999.90;999.90;;;13.40;99.90;;;;;;6636016;88;20186;-78
2022/09/25 09:00:19;;;;;;;1999.90;999.90;;;13.50;99.90;;;;;;6637091;88;20220;-80
2022/09/25 09:10:38;;;;;;;1999.90;999.90;;;13.70;99.90;;;;;;6633197;88;20208;-79
2022/09/25 09:21:26;;;;;;;1999.90;999.90;;;13.80;99.90;;;;;;6634073;88;20186;-77
2022/09/25 09:31:55;;;;;;;1999.90;999.90;;;14.00;99.90;;;;;;6635461;88;20252;-79
2022/09/25 09:42:25;;;;;;;1999.90;999.90;;;14.30;99.90;;;;;;6634064;88;20359;-77
2022/09/25 09:52:36;;;;;;;1999.90;999.90;;;14.70;99.90;;;;;;6649754;88;20307;-78
2022/09/25 10:02:57;;;;;;;1999.90;999.90;;;15.10;99.90;;;;;;6644456;88;20252;-79
2022/09/25 10:13:04;;;;;;;1999.90;999.90;;;15.10;99.90;;;;;;6635022;88;20481;-78
2022/09/25 10:23:14;;;;;;;1999.90;999.90;;;15.60;99.90;;;;;;6642948;88;20197;-79
2022/09/25 10:33:21;;;;;;;1999.90;999.90;;;15.90;99.90;;;;;;6690097;77;20213;-77
2022/09/25 10:43:23;;;;;;;1999.90;999.90;;;17.80;99.90;;;;;;6634488;88;20368;-78
2022/09/25 10:53:27;;;;;;;1999.90;999.90;;;17.60;99.90;;;;;;6648336;88;20196;-78
2022/09/25 11:03:33;;;;;;;1999.90;999.90;;;17.60;99.90;;;;;;6649711;89;20390;-77
2022/09/25 11:13:57;;;;;;;1999.90;999.90;;;17.20;99.90;;;;;;6657060;88;20902;-77
2022/09/25 11:24:24;;;;;;;1999.90;999.90;;;17.40;99.90;;;;;;6648823;88;20605;-77
2022/09/25 11:35:01;;;;;;;1999.90;999.90;;;18.00;99.90;;;;;;6637901;89;21062;-77
2022/09/25 11:45:09;;;;;;;1999.90;999.90;;;18.20;99.90;;;;;;6647040;88;20201;-78
2022/09/25 11:55:20;;;;;;;1999.90;999.90;;;17.90;99.90;;;;;;6647646;88;20203;-76
2022/09/25 12:05:51;;;;;;;1999.90;999.90;;;17.40;99.90;;;;;;6659614;88;20265;-76
2022/09/25 12:16:01;;;;;;;1999.90;999.90;;;17.50;99.90;;;;;;6637732;89;20270;-76
2022/09/25 12:26:28;;;;;;;1999.90;999.90;;;17.60;99.90;;;;;;6646461;88;20666;-76
2022/09/25 12:36:38;;;;;;;1999.90;999.90;;;17.90;99.90;;;;;;6649756;88;20258;-76
2022/09/25 12:46:55;;;;;;;1999.90;999.90;;;18.40;99.90;;;;;;6642451;88;20219;-78
2022/09/25 12:56:56;;;;;;;1999.90;999.90;;;20.40;99.90;;;;;;6645778;89;20215;-75
2022/09/25 13:07:05;;;;;;;1999.90;999.90;;;21.60;99.70;;;;;;6646559;88;20183;-78
2022/09/25 13:17:12;;;;;;;1999.90;999.90;;;21.50;99.50;;;;;;6643556;88;20288;-78
2022/09/25 13:27:17;;;;;;;1999.90;999.90;;;21.90;96.10;;;;;;6647966;88;20168;-76
2022/09/25 13:37:25;;;;;;;1999.90;999.90;;;21.00;97.70;;;;;;6645375;88;20256;-77
2022/09/25 13:47:26;;;;;;;1999.90;999.90;;;21.20;97.60;;;;;;6644493;89;20266;-78
2022/09/25 13:57:54;;;;;;;1999.90;999.90;;;21.30;97.30;;;;;;6642478;89;20260;-78
2022/09/25 14:08:00;;;;;;;1999.90;999.90;;;21.30;97.30;;;;;;6650279;89;20527;-78
2022/09/25 14:18:05;;;;;;;1999.90;999.90;;;21.60;97.10;;;;;;6652166;88;20213;-78
2022/09/25 14:28:19;;;;;;;1999.90;999.90;;;20.90;97.90;;;;;;6669991;89;20210;-77
2022/09/25 14:38:40;;;;;;;1999.90;999.90;;;21.00;96.40;;;;;;6639934;89;20317;-75
2022/09/25 14:48:51;;;;;;;1999.90;999.90;;;20.10;97.80;;;;;;6646300;89;20276;-75
2022/09/25 14:58:56;;;;;;;1999.90;999.90;;;20.70;97.50;;;;;;6639717;89;20180;-76
2022/09/25 15:09:00;;;;;;;1999.90;999.90;;;20.00;99.20;;;;;;6653491;88;20255;-81
2022/09/25 15:19:11;;;;;;;1999.90;999.90;;;19.90;99.00;;;;;;6648421;88;20187;-75
2022/09/25 15:29:17;;;;;;;1999.90;999.90;;;20.50;98.20;;;;;;6648543;88;20522;-77
2022/09/25 15:39:23;;;;;;;1999.90;999.90;;;20.40;97.80;;;;;;6650190;88;20184;-77
2022/09/25 15:49:37;;;;;;;1999.90;999.90;;;20.10;98.50;;;;;;6653237;88;20188;-79
2022/09/25 16:04:44;;;;;;;1999.90;999.90;;;19.70;99.90;;;;;;6673754;88;20283;-79
2022/09/25 16:10:08;;;;;;;1999.90;999.90;;;19.10;98.10;;;;;;6736119;88;20185;-78
2022/09/25 16:20:47;;;;;;;1999.90;999.90;;;18.30;99.70;;;;;;6735033;88;20288;-78
2022/09/25 16:41:18;;;;;;;1999.90;999.90;;;18.00;99.20;;;;;;6618977;88;20268;-77
2022/09/25 16:51:21;;;;;;;1999.90;999.90;;;17.30;99.90;;;;;;6634635;88;20569;-79
2022/09/25 17:01:24;;;;;;;1999.90;999.90;;;16.70;99.90;;;;;;6626221;88;20221;-79
2022/09/25 17:11:24;;;;;;;1999.90;999.90;;;16.30;99.90;;;;;;6613952;89;20980;-78
2022/09/25 17:21:25;;;;;;;1999.90;999.90;;;16.10;99.90;;;;;;6619789;89;20193;-78
2022/09/25 17:31:25;;;;;;;1999.90;999.90;;;15.60;99.90;;;;;;6619659;89;20197;-79
2022/09/25 17:41:34;;;;;;;1999.90;999.90;;;15.20;99.90;;;;;;6622116;89;20235;-78
2022/09/25 17:51:34;;;;;;;1999.90;999.90;;;14.90;99.90;;;;;;6660473;88;21283;-79
2022/09/25 18:01:36;;;;;;;1999.90;999.90;;;14.60;99.90;;;;;;6654931;88;20181;-78
2022/09/25 18:11:41;;;;;;;1999.90;999.90;;;14.30;99.90;;;;;;6631495;89;20232;-78
2022/09/25 18:32:01;;;;;;;1999.90;999.90;;;14.00;99.90;;;;;;6614029;88;20182;-80
2022/09/25 18:42:02;;;;;;;1999.90;999.90;;;14.10;99.90;;;;;;6621720;88;20214;-78
2022/09/25 18:52:03;;;;;;;1999.90;999.90;;;14.00;99.90;;;;;;6622081;89;20270;-80
2022/09/25 19:02:05;;;;;;;1999.90;999.90;;;13.70;99.90;;;;;;6625246;89;20620;-80
2022/09/25 19:12:06;;;;;;;1999.90;999.90;;;13.50;99.90;;;;;;6622697;89;20209;-78
2022/09/25 19:22:13;;;;;;;1999.90;999.90;;;13.40;99.90;;;;;;6622961;89;20197;-79
2022/09/25 19:32:15;;;;;;;1999.90;999.90;;;13.20;99.90;;;;;;6629026;88;20510;-79
2022/09/25 19:42:15;;;;;;;1999.90;999.90;;;13.10;99.90;;;;;;6626673;88;20193;-79
2022/09/25 19:52:19;;;;;;;1999.90;999.90;;;12.80;99.90;;;;;;6621925;89;20190;-80
2022/09/25 20:02:19;;;;;;;1999.90;999.90;;;12.50;99.90;;;;;;6620180;89;20187;-79
2022/09/25 20:12:20;;;;;;;1999.90;999.90;;;12.40;99.90;;;;;;6632141;89;20287;-79
2022/09/25 20:22:24;;;;;;;1999.90;999.90;;;12.20;99.90;;;;;;6630852;88;20229;-81
2022/09/25 20:32:24;;;;;;;1999.90;999.90;;;12.20;99.90;;;;;;6636377;89;20617;-78
2022/09/25 20:42:25;;;;;;;1999.90;999.90;;;12.00;99.90;;;;;;6633405;88;20614;-79
2022/09/25 20:52:26;;;;;;;1999.90;999.90;;;11.90;99.90;;;;;;6633665;89;20704;-78
2022/09/25 21:02:27;;;;;;;1999.90;999.90;;;11.80;99.90;;;;;;6632957;89;20318;-77
2022/09/25 21:12:28;;;;;;;1999.90;999.90;;;11.80;99.90;;;;;;6634225;88;20208;-79
2022/09/25 21:22:28;;;;;;;1999.90;999.90;;;11.60;99.90;;;;;;6627468;88;20178;-80
2022/09/25 21:32:29;;;;;;;1999.90;999.90;;;11.20;99.90;;;;;;6621022;88;20381;-80
2022/09/25 21:42:29;;;;;;;1999.90;999.90;;;11.20;99.90;;;;;;6619019;89;20210;-78
2022/09/25 21:52:30;;;;;;;1999.90;999.90;;;10.90;99.90;;;;;;6618181;89;20193;-78
2022/09/25 22:02:30;;;;;;;1999.90;999.90;;;10.90;99.90;;;;;;6622458;89;20206;-78
2022/09/25 22:12:31;;;;;;;1999.90;999.90;;;10.70;99.90;;;;;;6620546;88;20316;-80
2022/09/25 22:22:31;;;;;;;1999.90;999.90;;;10.50;99.90;;;;;;6619565;89;20625;-78
2022/09/25 22:32:32;;;;;;;1999.90;999.90;;;10.60;99.90;;;;;;6629218;77;20761;-77
2022/09/25 22:42:32;;;;;;;1999.90;999.90;;;10.30;99.90;;;;;;6645986;88;20202;-77
2022/09/25 22:52:34;;;;;;;1999.90;999.90;;;10.10;99.90;;;;;;6643675;88;20342;-77
2022/09/25 23:02:35;;;;;;;1999.90;999.90;;;10.40;99.90;;;;;;6649507;88;20197;-77
2022/09/25 23:12:36;;;;;;;1999.90;999.90;;;10.10;99.90;;;;;;6643151;88;20209;-77
2022/09/25 23:22:36;;;;;;;1999.90;999.90;;;9.90;99.90;;;;;;6657035;88;20595;-77
2022/09/25 23:32:37;;;;;;;1999.90;999.90;;;9.60;99.90;;;;;;6646474;88;21841;-77
2022/09/25 23:42:37;;;;;;;1999.90;999.90;;;9.60;99.90;;;;;;6646676;88;20486;-77
2022/09/25 23:52:38;;;;;;;1999.90;999.90;;;9.50;99.90;;;;;;6654514;88;20682;-77
